createdAt,value
2018-12-12T00:00:08.907Z,99506.59
2018-12-12T00:02:39.812Z,99490.55
2018-12-12T00:05:10.393Z,99496.00
2018-12-12T00:07:40.827Z,99504.36
2018-12-12T00:10:15.607Z,99498.86
2018-12-12T00:12:46.039Z,99501.26
2018-12-12T00:15:18.307Z,99501.11
2018-12-12T00:17:51.368Z,99503.00
2018-12-12T00:20:23.802Z,99505.91
2018-12-12T00:22:55.058Z,99501.61
2018-12-12T00:25:24.661Z,99507.19
2018-12-12T00:27:55.747Z,99500.27
2018-12-12T00:30:25.883Z,99504.06
2018-12-12T00:32:56.923Z,99508.44
2018-12-12T00:35:26.943Z,99506.11
2018-12-12T00:37:57.795Z,99512.04
2018-12-12T00:40:27.815Z,99515.46
2018-12-12T00:42:59.064Z,99520.39
2018-12-12T00:45:29.975Z,99522.78
2018-12-12T00:47:59.893Z,99514.61
2018-12-12T00:50:30.763Z,99522.88
2018-12-12T00:53:00.999Z,99518.30
2018-12-12T00:55:32.031Z,99527.14
2018-12-12T00:58:02.115Z,99519.19
2018-12-12T01:00:32.983Z,99533.38
2018-12-12T01:03:04.260Z,99526.58
2018-12-12T01:05:33.994Z,99527.45
2018-12-12T01:08:05.129Z,99530.38
2018-12-12T01:10:39.914Z,99533.28
2018-12-12T01:13:12.008Z,99532.38
2018-12-12T01:15:41.546Z,99531.97
2018-12-12T01:18:13.898Z,99530.30
2018-12-12T01:20:44.742Z,99532.34
2018-12-12T01:23:14.986Z,99537.33
2018-12-12T01:25:45.000Z,99537.00
2018-12-12T01:28:14.626Z,99533.23
2018-12-12T01:30:45.097Z,99532.56
2018-12-12T01:33:15.060Z,99537.35
2018-12-12T01:35:45.385Z,99537.69
2018-12-12T01:38:16.143Z,99533.95
2018-12-12T01:40:48.211Z,99536.09
2018-12-12T01:43:20.270Z,99535.48
2018-12-12T01:45:50.926Z,99538.39
2018-12-12T01:48:21.343Z,99538.93
2018-12-12T01:50:51.128Z,99537.61
2018-12-12T01:53:22.411Z,99536.20
2018-12-12T01:55:53.108Z,99539.18
2018-12-12T01:58:23.353Z,99543.72
2018-12-12T02:00:54.310Z,99539.79
2018-12-12T02:03:24.395Z,99536.61
2018-12-12T02:05:54.402Z,99532.52
2018-12-12T02:08:26.275Z,99536.30
2018-12-12T02:10:56.648Z,99532.56
2018-12-12T02:13:35.148Z,99541.17
2018-12-12T02:16:08.207Z,99534.97
2018-12-12T02:18:41.346Z,99537.28
2018-12-12T02:21:11.312Z,99532.98
2018-12-12T02:23:41.351Z,99532.56
2018-12-12T02:26:12.342Z,99536.34
2018-12-12T02:28:41.902Z,99532.70
2018-12-12T02:31:14.380Z,99533.35
2018-12-12T02:33:45.503Z,99535.48
2018-12-12T02:36:15.346Z,99536.01
2018-12-12T02:38:47.359Z,99539.42
2018-12-12T02:41:17.433Z,99540.61
2018-12-12T02:43:47.522Z,99534.30
2018-12-12T02:46:18.463Z,99539.60
2018-12-12T02:48:50.544Z,99538.39
2018-12-12T02:51:22.587Z,99540.33
2018-12-12T02:53:53.268Z,99536.77
2018-12-12T02:56:23.477Z,99541.06
2018-12-12T02:58:53.503Z,99533.12
2018-12-12T03:01:24.913Z,99535.95
2018-12-12T03:03:55.567Z,99541.72
2018-12-12T03:06:26.644Z,99544.29
2018-12-12T03:08:56.856Z,99538.39
2018-12-12T03:11:27.312Z,99535.47
2018-12-12T03:13:58.036Z,99536.73
2018-12-12T03:16:28.487Z,99535.03
2018-12-12T03:18:58.718Z,99534.69
2018-12-12T03:21:29.930Z,99533.48
2018-12-12T03:24:00.372Z,99534.90
2018-12-12T03:26:30.565Z,99532.70
2018-12-12T03:29:01.567Z,99536.50
2018-12-12T03:31:32.400Z,99534.36
2018-12-12T03:34:02.786Z,99535.82
2018-12-12T03:36:33.873Z,99537.63
2018-12-12T03:39:07.254Z,99538.89
2018-12-12T03:41:38.791Z,99540.80
2018-12-12T03:44:09.832Z,99546.98
2018-12-12T03:46:39.894Z,99543.94
2018-12-12T03:49:11.637Z,99532.17
2018-12-12T03:51:41.615Z,99539.23
2018-12-12T03:54:13.523Z,99536.83
2018-12-12T03:56:44.825Z,99539.36
2018-12-12T03:59:16.853Z,99538.16
2018-12-12T04:01:47.985Z,99531.73
2018-12-12T04:04:17.663Z,99529.98
2018-12-12T04:06:47.691Z,99531.73
2018-12-12T04:09:18.795Z,99532.36
2018-12-12T04:11:48.857Z,99523.94
2018-12-12T04:14:19.835Z,99530.03
2018-12-12T04:16:51.085Z,99529.94
2018-12-12T04:19:22.010Z,99533.80
2018-12-12T04:21:53.072Z,99534.08
2018-12-12T04:24:26.686Z,99524.55
2018-12-12T04:26:58.758Z,99531.27
2018-12-12T04:29:28.973Z,99535.84
2018-12-12T04:32:00.005Z,99536.27
2018-12-12T04:34:31.236Z,99539.45
2018-12-12T04:37:01.893Z,99535.95
2018-12-12T04:39:37.304Z,99536.84
2018-12-12T04:42:11.873Z,99539.41
2018-12-12T04:44:41.531Z,99542.89
2018-12-12T04:47:13.966Z,99541.85
2018-12-12T04:49:45.124Z,99543.57
2018-12-12T04:52:14.963Z,99553.05
2018-12-12T04:54:45.193Z,99545.49
2018-12-12T04:57:15.984Z,99543.77
2018-12-12T04:59:48.301Z,99547.25
2018-12-12T05:02:22.119Z,99556.03
2018-12-12T05:04:52.620Z,99555.64
2018-12-12T05:07:22.147Z,99554.98
2018-12-12T05:09:53.043Z,99559.39
2018-12-12T05:12:23.058Z,99569.45
2018-12-12T05:14:54.163Z,99568.43
2018-12-12T05:17:26.051Z,99566.37
2018-12-12T05:19:58.023Z,99560.51
2018-12-12T05:22:29.069Z,99569.91
2018-12-12T05:25:01.799Z,99565.66
2018-12-12T05:27:33.149Z,99569.91
2018-12-12T05:30:04.203Z,99575.76
2018-12-12T05:32:34.336Z,99585.52
2018-12-12T05:35:04.686Z,99576.01
2018-12-12T05:37:35.216Z,99586.56
2018-12-12T05:40:06.788Z,99593.78
2018-12-12T05:42:37.200Z,99596.38
2018-12-12T05:45:07.416Z,99593.78
2018-12-12T05:47:38.147Z,99600.35
2018-12-12T05:50:09.322Z,99603.05
2018-12-12T05:52:39.769Z,99607.16
2018-12-12T05:55:11.784Z,99606.25
2018-12-12T05:57:41.394Z,99609.98
2018-12-12T06:00:14.057Z,99611.64
2018-12-12T06:02:46.230Z,99615.09
2018-12-12T06:05:16.286Z,99613.42
2018-12-12T06:07:47.336Z,99625.13
2018-12-12T06:10:18.510Z,99621.52
2018-12-12T06:12:49.309Z,99630.36
2018-12-12T06:15:19.405Z,99633.22
2018-12-12T06:17:50.341Z,99640.87
2018-12-12T06:20:20.329Z,99632.30
2018-12-12T06:22:51.587Z,99640.27
2018-12-12T06:25:21.420Z,99644.97
2018-12-12T06:27:52.450Z,99639.12
2018-12-12T06:30:23.100Z,99646.25
2018-12-12T06:32:54.560Z,99648.48
2018-12-12T06:35:26.380Z,99639.01
2018-12-12T06:37:58.643Z,99645.28
2018-12-12T06:40:28.460Z,99647.45
2018-12-12T06:42:58.400Z,99655.66
2018-12-12T06:45:29.483Z,99652.62
2018-12-12T06:48:01.481Z,99658.75
2018-12-12T06:50:30.976Z,99661.66
2018-12-12T06:53:01.485Z,99658.33
2018-12-12T06:55:32.455Z,99658.81
2018-12-12T06:58:02.353Z,99661.33
2018-12-12T07:00:33.552Z,99660.13
2018-12-12T07:03:04.625Z,99662.13
2018-12-12T07:05:35.399Z,99662.98
2018-12-12T07:08:09.132Z,99669.89
2018-12-12T07:10:39.571Z,99678.38
2018-12-12T07:13:09.563Z,99673.39
2018-12-12T07:15:41.683Z,99680.63
2018-12-12T07:18:14.458Z,99684.55
2018-12-12T07:20:45.624Z,99684.72
2018-12-12T07:23:22.702Z,99691.23
2018-12-12T07:25:52.719Z,99689.84
2018-12-12T07:28:23.728Z,99697.19
2018-12-12T07:30:54.660Z,99698.27
2018-12-12T07:33:24.643Z,99705.00
2018-12-12T07:35:59.506Z,99699.42
2018-12-12T07:38:28.622Z,99707.23
2018-12-12T07:40:59.782Z,99708.02
2018-12-12T07:43:29.721Z,99712.20
2018-12-12T07:46:00.579Z,99708.30
2018-12-12T07:48:31.671Z,99709.15
2018-12-12T07:51:01.820Z,99713.85
2018-12-12T07:53:32.902Z,99711.81
2018-12-12T07:56:02.696Z,99722.16
2018-12-12T07:58:32.904Z,99720.12
2018-12-12T08:01:04.895Z,99733.87
2018-12-12T08:03:34.766Z,99734.81
2018-12-12T08:06:05.837Z,99736.92
2018-12-12T08:08:36.739Z,99739.34
2018-12-12T08:11:07.971Z,99744.38
2018-12-12T08:13:38.863Z,99739.05
2018-12-12T08:16:09.574Z,99747.88
2018-12-12T08:18:40.177Z,99750.95
2018-12-12T08:23:49.169Z,99747.94
2018-12-12T08:26:20.980Z,99754.20
2018-12-12T08:28:52.775Z,99751.28
2018-12-12T08:31:22.594Z,99746.29
2018-12-12T08:33:52.754Z,99749.55
2018-12-12T08:36:23.137Z,99755.17
2018-12-12T08:38:53.761Z,99759.44
2018-12-12T08:41:24.771Z,99771.73
2018-12-12T08:43:55.021Z,99768.55
2018-12-12T08:46:25.027Z,99770.57
2018-12-12T08:48:56.078Z,99775.17
2018-12-12T08:51:27.028Z,99775.62
2018-12-12T08:53:56.964Z,99775.53
2018-12-12T08:56:27.939Z,99786.52
2018-12-12T08:58:58.575Z,99786.16
2018-12-12T09:01:29.166Z,99794.09
2018-12-12T09:03:59.924Z,99793.53
2018-12-12T09:06:30.128Z,99798.58
2018-12-12T09:09:00.925Z,99801.73
2018-12-12T09:11:32.098Z,99792.84
2018-12-12T09:14:02.996Z,99789.55
2018-12-12T09:16:33.183Z,99798.64
2018-12-12T09:19:04.248Z,99806.41
2018-12-12T09:21:35.846Z,99794.27
2018-12-12T09:24:08.945Z,99788.45
2018-12-12T09:26:40.098Z,99790.53
2018-12-12T09:29:10.397Z,99800.41
2018-12-12T09:31:40.864Z,99789.04
2018-12-12T09:34:12.294Z,99795.00
2018-12-12T09:36:42.008Z,99794.14
2018-12-12T09:39:13.394Z,99795.05
2018-12-12T09:41:42.967Z,99801.80
2018-12-12T09:44:14.239Z,99792.16
2018-12-12T09:46:46.279Z,99793.23
2018-12-12T09:49:18.295Z,99789.04
2018-12-12T09:51:49.341Z,99793.13
2018-12-12T09:54:20.191Z,99794.68
2018-12-12T09:56:51.284Z,99800.66
2018-12-12T09:59:21.310Z,99795.81
2018-12-12T10:01:51.288Z,99796.56
2018-12-12T10:04:23.651Z,99800.93
2018-12-12T10:06:53.284Z,99804.21
2018-12-12T10:09:24.316Z,99798.86
2018-12-12T10:11:54.317Z,99793.49
2018-12-12T10:14:25.456Z,99794.20
2018-12-12T10:16:56.394Z,99772.55
2018-12-12T10:19:26.388Z,99788.93
2018-12-12T10:21:57.567Z,99789.34
2018-12-12T10:24:29.724Z,99792.52
2018-12-12T10:27:00.373Z,99789.80
2018-12-12T10:29:32.520Z,99785.72
2018-12-12T10:32:02.535Z,99785.18
2018-12-12T10:34:33.409Z,99780.41
2018-12-12T10:37:04.822Z,99778.36
2018-12-12T10:39:34.336Z,99779.75
2018-12-12T10:42:11.520Z,99773.81
2018-12-12T10:44:42.073Z,99783.95
2018-12-12T10:47:12.600Z,99779.14
2018-12-12T10:52:31.048Z,99776.31
2018-12-12T10:55:02.477Z,99778.53
2018-12-12T10:57:36.480Z,99780.97
2018-12-12T11:00:12.743Z,99789.23
2018-12-12T11:02:46.137Z,99780.44
2018-12-12T11:05:16.731Z,99777.59
2018-12-12T11:07:47.851Z,99777.67
2018-12-12T11:10:18.372Z,99783.67
2018-12-12T11:12:48.870Z,99773.87
2018-12-12T11:15:20.016Z,99776.69
2018-12-12T11:17:50.478Z,99772.33
2018-12-12T11:20:20.795Z,99779.11
2018-12-12T11:22:51.736Z,99774.05
2018-12-12T11:25:22.759Z,99771.33
2018-12-12T11:27:53.384Z,99780.20
2018-12-12T11:30:24.488Z,99781.45
2018-12-12T11:32:54.871Z,99772.56
2018-12-12T11:35:25.703Z,99774.00
2018-12-12T11:37:56.697Z,99774.59
2018-12-12T11:40:26.749Z,99781.51
2018-12-12T11:43:03.539Z,99776.20
2018-12-12T11:45:34.781Z,99768.11
2018-12-12T11:48:05.843Z,99761.09
2018-12-12T11:50:36.027Z,99769.62
2018-12-12T11:53:06.712Z,99772.34
2018-12-12T11:55:36.839Z,99769.71
2018-12-12T11:58:07.889Z,99766.29
2018-12-12T12:00:37.932Z,99763.84
2018-12-12T12:03:08.897Z,99760.60
2018-12-12T12:05:42.497Z,99775.38
2018-12-12T12:08:19.283Z,99768.19
2018-12-12T12:10:48.806Z,99776.15
2018-12-12T12:13:20.587Z,99766.50
2018-12-12T12:15:51.108Z,99763.44
2018-12-12T12:18:21.739Z,99753.95
2018-12-12T12:20:52.123Z,99763.75
2018-12-12T12:23:22.992Z,99773.20
2018-12-12T12:25:53.725Z,99770.16
2018-12-12T12:28:23.956Z,99761.95
2018-12-12T12:30:55.064Z,99772.13
2018-12-12T12:33:26.173Z,99772.13
2018-12-12T12:35:56.659Z,99776.30
2018-12-12T12:38:27.195Z,99777.23
2018-12-12T12:40:58.015Z,99775.79
2018-12-12T12:43:29.004Z,99783.73
2018-12-12T12:46:02.757Z,99774.68
2018-12-12T12:48:34.193Z,99784.86
2018-12-12T12:51:04.031Z,99778.70
2018-12-12T12:53:35.056Z,99779.11
2018-12-12T12:56:06.211Z,99785.22
2018-12-12T12:58:36.148Z,99782.45
2018-12-12T13:01:06.998Z,99787.43
2018-12-12T13:03:37.038Z,99778.89
2018-12-12T13:06:08.187Z,99775.73
2018-12-12T13:08:38.682Z,99783.69
2018-12-12T13:11:14.672Z,99779.26
2018-12-12T13:13:42.303Z,99777.00
2018-12-12T13:16:13.240Z,99780.98
2018-12-12T13:18:42.801Z,99780.80
2018-12-12T13:21:15.236Z,99775.69
2018-12-12T13:23:46.339Z,99769.68
2018-12-12T13:26:17.134Z,99773.44
2018-12-12T13:28:49.218Z,99782.84
2018-12-12T13:31:21.293Z,99779.53
2018-12-12T13:33:52.553Z,99783.64
2018-12-12T13:36:22.076Z,99779.95
2018-12-12T13:38:52.255Z,99781.16
2018-12-12T13:41:23.214Z,99801.52
2018-12-12T13:43:54.502Z,99794.69
2018-12-12T13:46:25.159Z,99793.09
2018-12-12T13:48:56.589Z,99794.63
2018-12-12T13:51:26.223Z,99797.34
2018-12-12T13:54:03.310Z,99799.43
2018-12-12T13:56:34.610Z,99804.77
2018-12-12T13:59:05.363Z,99811.45
2018-12-12T14:01:35.468Z,99813.34
2018-12-12T14:04:06.507Z,99839.25
2018-12-12T14:06:37.033Z,99832.02
2018-12-12T14:09:07.994Z,99842.44
2018-12-12T14:11:38.295Z,99835.07
2018-12-12T14:14:08.362Z,99838.06
2018-12-12T14:16:39.471Z,99843.80
2018-12-12T14:19:10.044Z,99832.29
2018-12-12T14:21:40.459Z,99827.16
2018-12-12T14:24:11.124Z,99822.85
2018-12-12T14:26:41.653Z,99821.52
2018-12-12T14:29:12.189Z,99824.45
2018-12-12T14:31:42.681Z,99828.11
2018-12-12T14:34:13.393Z,99829.38
2018-12-12T14:36:42.965Z,99823.58
2018-12-12T14:39:14.387Z,99825.91
2018-12-12T14:41:45.345Z,99828.39
2018-12-12T14:44:15.737Z,99833.42
2018-12-12T14:46:45.601Z,99836.27
2018-12-12T14:49:17.179Z,99833.09
2018-12-12T14:51:47.745Z,99838.88
2018-12-12T14:54:17.957Z,99844.97
2018-12-12T14:56:48.502Z,99841.53
2018-12-12T14:59:19.747Z,99841.11
2018-12-12T15:01:50.866Z,99847.37
2018-12-12T15:04:21.845Z,99838.38
2018-12-12T15:06:51.681Z,99841.75
2018-12-12T15:09:23.181Z,99834.77
2018-12-12T15:11:52.717Z,99836.09
2018-12-12T15:14:23.928Z,99839.88
2018-12-12T15:16:54.263Z,99838.56
2018-12-12T15:19:30.533Z,99840.61
2018-12-12T15:22:03.425Z,99839.20
2018-12-12T15:24:35.587Z,99845.90
2018-12-12T15:27:06.714Z,99837.40
2018-12-12T15:29:39.632Z,99847.86
2018-12-12T15:32:09.939Z,99846.44
2018-12-12T15:34:42.523Z,99842.45
2018-12-12T15:37:13.607Z,99840.87
2018-12-12T15:39:43.172Z,99839.61
2018-12-12T15:42:14.840Z,99847.09
2018-12-12T15:44:45.160Z,99844.42
2018-12-12T15:47:16.115Z,99845.91
2018-12-12T15:49:45.715Z,99845.13
2018-12-12T15:52:16.986Z,99844.16
2018-12-12T15:54:47.908Z,99842.31
2018-12-12T15:57:18.510Z,99846.70
2018-12-12T15:59:48.813Z,99849.59
2018-12-12T16:02:20.088Z,99848.19
2018-12-12T16:04:51.957Z,99848.72
2018-12-12T16:07:28.705Z,99848.00
2018-12-12T16:09:59.015Z,99854.62
2018-12-12T16:12:29.901Z,99857.56
2018-12-12T16:15:00.949Z,99856.06
2018-12-12T16:17:30.859Z,99857.91
2018-12-12T16:20:02.081Z,99859.11
2018-12-12T16:22:33.199Z,99857.98
2018-12-12T16:25:03.754Z,99862.25
2018-12-12T16:27:34.067Z,99851.22
2018-12-12T16:30:06.862Z,99853.03
2018-12-12T16:32:38.027Z,99852.77
2018-12-12T16:35:08.138Z,99861.20
2018-12-12T16:37:39.192Z,99859.94
2018-12-12T16:40:09.024Z,99860.32
2018-12-12T16:42:40.098Z,99857.59
2018-12-12T16:45:10.127Z,99860.47
2018-12-12T16:47:41.135Z,99857.45
2018-12-12T16:50:11.547Z,99852.54
2018-12-12T16:52:41.188Z,99860.74
2018-12-12T16:55:13.039Z,99862.80
2018-12-12T16:57:42.684Z,99864.06
2018-12-12T17:00:14.282Z,99862.00
2018-12-12T17:02:46.251Z,99865.52
2018-12-12T17:05:18.223Z,99860.48
2018-12-12T17:07:49.178Z,99860.48
2018-12-12T17:10:19.038Z,99857.48
2018-12-12T17:12:49.443Z,99856.88
2018-12-12T17:15:20.296Z,99856.55
2018-12-12T17:17:52.128Z,99854.16
2018-12-12T17:20:24.449Z,99844.61
2018-12-12T17:22:55.296Z,99851.23
2018-12-12T17:25:26.195Z,99858.75
2018-12-12T17:27:57.167Z,99862.21
2018-12-12T17:30:27.813Z,99858.81
2018-12-12T17:32:57.921Z,99855.52
2018-12-12T17:35:28.384Z,99858.83
2018-12-12T17:37:59.502Z,99865.66
2018-12-12T17:40:30.456Z,99870.73
2018-12-12T17:43:00.536Z,99872.13
2018-12-12T17:45:31.366Z,99871.79
2018-12-12T17:48:01.631Z,99877.72
2018-12-12T17:50:32.298Z,99874.41
2018-12-12T17:53:02.521Z,99880.24
2018-12-12T17:55:33.207Z,99876.45
2018-12-12T17:58:03.419Z,99847.69
2018-12-12T18:00:34.067Z,99884.63
2018-12-12T18:03:04.613Z,99885.39
2018-12-12T18:05:35.071Z,99883.34
2018-12-12T18:08:05.530Z,99876.45
2018-12-12T18:10:36.395Z,99880.31
2018-12-12T18:13:12.440Z,99891.17
2018-12-12T18:15:42.885Z,99889.64
2018-12-12T18:18:14.598Z,99907.31
2018-12-12T18:20:46.480Z,99903.91
2018-12-12T18:23:18.522Z,99910.30
2018-12-12T18:25:51.166Z,99907.13
2018-12-12T18:28:22.768Z,99913.70
2018-12-12T18:30:52.442Z,99908.66
2018-12-12T18:33:22.290Z,99905.70
2018-12-12T18:35:52.818Z,99911.88
2018-12-12T18:38:23.535Z,99903.58
2018-12-12T18:40:53.552Z,99901.92
2018-12-12T18:43:23.664Z,99900.58
2018-12-12T18:45:56.060Z,99900.52
2018-12-12T18:48:27.656Z,99904.63
2018-12-12T18:50:57.810Z,99906.28
2018-12-12T18:53:29.822Z,99906.00
2018-12-12T18:56:01.814Z,99910.25
2018-12-12T18:58:33.817Z,99912.46
2018-12-12T19:01:06.074Z,99914.80
2018-12-12T19:03:35.568Z,99916.89
2018-12-12T19:06:07.323Z,99914.03
2018-12-12T19:08:37.847Z,99916.01
2018-12-12T19:11:07.798Z,99911.44
2018-12-12T19:13:38.842Z,99891.41
2018-12-12T19:16:09.365Z,99921.53
2018-12-12T19:18:39.674Z,99923.63
2018-12-12T19:21:10.516Z,99925.22
2018-12-12T19:23:41.132Z,99930.34
2018-12-12T19:26:11.551Z,99933.73
2018-12-12T19:28:42.520Z,99932.47
2018-12-12T19:31:12.703Z,99928.06
2018-12-12T19:33:42.885Z,99935.41
2018-12-12T19:36:14.014Z,99933.37
2018-12-12T19:38:43.621Z,99930.77
2018-12-12T19:41:14.937Z,99921.12
2018-12-12T19:43:46.176Z,99930.06
2018-12-12T19:46:16.668Z,99927.46
2018-12-12T19:48:46.804Z,99929.09
2018-12-12T19:51:17.983Z,99926.66
2018-12-12T19:53:48.940Z,99925.95
2018-12-12T19:56:19.786Z,99934.48
2018-12-12T19:58:50.011Z,99935.11
2018-12-12T20:01:21.060Z,99928.09
2018-12-12T20:03:51.901Z,99927.34
2018-12-12T20:06:21.887Z,99930.12
2018-12-12T20:08:52.752Z,99932.31
2018-12-12T20:11:23.504Z,99934.91
2018-12-12T20:13:53.202Z,99935.03
2018-12-12T20:16:24.011Z,99934.91
2018-12-12T20:18:54.721Z,99933.57
2018-12-12T20:21:25.200Z,99942.11
2018-12-12T20:23:55.672Z,99944.30
2018-12-12T20:26:26.019Z,99940.06
2018-12-12T20:28:56.064Z,99943.42
2018-12-12T20:31:27.432Z,99944.83
2018-12-12T20:33:57.903Z,99941.30
2018-12-12T20:36:28.120Z,99946.64
2018-12-12T20:38:59.111Z,99946.41
2018-12-12T20:41:29.896Z,99943.16
2018-12-12T20:44:00.229Z,99945.25
2018-12-12T20:46:31.523Z,99950.30
2018-12-12T20:49:01.924Z,99946.61
2018-12-12T20:51:32.379Z,99949.03
2018-12-12T20:54:03.159Z,99946.86
2018-12-12T20:56:34.020Z,99948.47
2018-12-12T20:59:04.338Z,99944.52
2018-12-12T21:01:35.296Z,99940.66
2018-12-12T21:04:06.187Z,99941.13
2018-12-12T21:06:36.931Z,99903.95
2018-12-12T21:09:07.682Z,99944.25
2018-12-12T21:11:38.205Z,99952.56
2018-12-12T21:14:09.388Z,99947.80
2018-12-12T21:16:39.940Z,99951.58
2018-12-12T21:19:10.505Z,99957.27
2018-12-12T21:21:41.138Z,99968.63
2018-12-12T21:24:11.551Z,99965.77
2018-12-12T21:26:42.260Z,99968.11
2018-12-12T21:29:12.738Z,99963.19
2018-12-12T21:31:43.194Z,99965.16
2018-12-12T21:34:14.113Z,99965.39
2018-12-12T21:36:43.649Z,99967.38
2018-12-12T21:39:15.217Z,99971.52
2018-12-12T21:41:45.985Z,99976.02
2018-12-12T21:44:16.331Z,99964.94
2018-12-12T21:46:46.604Z,99970.31
2018-12-12T21:49:17.479Z,99972.15
2018-12-12T21:51:48.530Z,99973.84
2018-12-12T21:54:19.261Z,99973.84
2018-12-12T21:56:49.582Z,99977.28
2018-12-12T21:59:20.371Z,99977.25
2018-12-12T22:01:51.359Z,99973.07
2018-12-12T22:04:22.174Z,99979.40
2018-12-12T22:06:52.436Z,99986.05
2018-12-12T22:09:28.595Z,99982.50
2018-12-12T22:12:00.469Z,99967.54
2018-12-12T22:14:31.500Z,99976.97
2018-12-12T22:17:02.505Z,99976.34
2018-12-12T22:19:32.584Z,99977.77
2018-12-12T22:22:03.432Z,99971.23
2018-12-12T22:24:34.369Z,99972.64
2018-12-12T22:27:05.644Z,99975.59
2018-12-12T22:29:35.899Z,99975.91
2018-12-12T22:32:05.640Z,99970.81
2018-12-12T22:34:36.655Z,99979.38
2018-12-12T22:37:06.798Z,99978.80
2018-12-12T22:39:37.506Z,99981.20
2018-12-12T22:42:09.673Z,99981.12
2018-12-12T22:44:41.570Z,99984.93
2018-12-12T22:47:12.600Z,99980.20
2018-12-12T22:49:42.576Z,99989.38
2018-12-12T22:52:14.916Z,99989.69
2018-12-12T22:54:49.475Z,99997.77
2018-12-12T22:57:20.660Z,99997.94
2018-12-12T22:59:52.560Z,99995.41
2018-12-12T23:02:22.654Z,99997.31
2018-12-12T23:04:52.688Z,99995.27
2018-12-12T23:07:23.814Z,99993.42
2018-12-12T23:09:54.831Z,99991.22
2018-12-12T23:12:25.573Z,99989.77
2018-12-12T23:14:55.766Z,99999.54
2018-12-12T23:17:26.829Z,99992.28
2018-12-12T23:19:56.782Z,99994.53
2018-12-12T23:22:28.737Z,99993.55
2018-12-12T23:24:59.504Z,99993.19
2018-12-12T23:27:29.871Z,99991.31
2018-12-12T23:30:00.004Z,99990.08
2018-12-12T23:32:30.819Z,99989.97
2018-12-12T23:35:01.880Z,99988.80
2018-12-12T23:37:32.229Z,99988.45
2018-12-12T23:40:02.785Z,99992.67
2018-12-12T23:42:37.223Z,99991.80
2018-12-12T23:45:07.084Z,99985.72
2018-12-12T23:47:38.001Z,99985.16
2018-12-12T23:50:09.073Z,99985.35
2018-12-12T23:52:38.973Z,99978.63
2018-12-12T23:55:09.991Z,99982.71
2018-12-12T23:57:40.041Z,99977.18
